createdAt,value
2018-01-15T00:00:01.217Z,1011.22
2018-01-15T00:01:01.229Z,1011.15
2018-01-15T00:02:01.242Z,1011.18
2018-01-15T00:03:01.256Z,1011.11
2018-01-15T00:04:01.273Z,1011.14
2018-01-15T00:05:01.290Z,1011.17
2018-01-15T00:06:01.306Z,1011.20
2018-01-15T00:07:01.328Z,1011.15
2018-01-15T00:08:01.324Z,1011.14
2018-01-15T00:09:01.339Z,1011.12
2018-01-15T00:10:01.353Z,1011.13
2018-01-15T00:11:01.366Z,1011.13
2018-01-15T00:12:01.383Z,1011.12
2018-01-15T00:13:01.397Z,1011.13
2018-01-15T00:14:01.408Z,1011.05
2018-01-15T00:15:01.417Z,1011.06
2018-01-15T00:16:01.437Z,1011.04
2018-01-15T00:17:01.449Z,1011.01
2018-01-15T00:18:01.463Z,1011.01
2018-01-15T00:19:01.475Z,1011.01
2018-01-15T00:20:01.495Z,1010.97
2018-01-15T00:21:01.505Z,1010.95
2018-01-15T00:22:01.524Z,1010.90
2018-01-15T00:23:01.534Z,1010.86
2018-01-15T00:24:01.547Z,1010.84
2018-01-15T00:25:01.559Z,1010.83
2018-01-15T00:26:01.573Z,1010.81
2018-01-15T00:27:01.588Z,1010.78
2018-01-15T00:28:01.607Z,1010.76
2018-01-15T00:29:01.617Z,1010.69
2018-01-15T00:30:01.632Z,1010.71
2018-01-15T00:31:01.643Z,1010.59
2018-01-15T00:32:01.654Z,1010.66
2018-01-15T00:33:01.666Z,1010.64
2018-01-15T00:34:01.679Z,1010.66
2018-01-15T00:35:01.698Z,1010.65
2018-01-15T00:36:01.716Z,1010.69
2018-01-15T00:37:01.748Z,1010.66
2018-01-15T00:38:01.737Z,1010.60
2018-01-15T00:39:01.752Z,1010.69
2018-01-15T00:40:01.766Z,1010.71
2018-01-15T00:41:01.776Z,1010.71
2018-01-15T00:42:01.796Z,1010.72
2018-01-15T00:43:01.809Z,1010.66
2018-01-15T00:44:01.818Z,1010.65
2018-01-15T00:45:01.840Z,1010.66
2018-01-15T00:46:01.847Z,1010.62
2018-01-15T00:47:01.862Z,1010.63
2018-01-15T00:48:01.877Z,1010.61
2018-01-15T00:49:01.892Z,1010.55
2018-01-15T00:50:01.900Z,1010.58
2018-01-15T00:51:01.915Z,1010.57
2018-01-15T00:52:01.932Z,1010.56
2018-01-15T00:53:01.945Z,1010.48
2018-01-15T00:54:01.960Z,1010.48
2018-01-15T00:55:01.971Z,1010.46
2018-01-15T00:56:01.990Z,1010.46
2018-01-15T00:57:02.000Z,1010.39
2018-01-15T00:58:02.011Z,1010.36
2018-01-15T00:59:02.027Z,1010.33
2018-01-15T01:00:02.042Z,1010.29
2018-01-15T01:01:02.052Z,1010.27
2018-01-15T01:02:02.067Z,1010.30
2018-01-15T01:03:02.084Z,1010.30
2018-01-15T01:04:02.098Z,1010.29
2018-01-15T01:05:02.107Z,1010.30
2018-01-15T01:06:02.124Z,1010.27
2018-01-15T01:07:02.140Z,1010.31
2018-01-15T01:08:02.153Z,1010.29
2018-01-15T01:09:02.168Z,1010.23
2018-01-15T01:10:02.181Z,1010.19
2018-01-15T01:11:02.194Z,1010.14
2018-01-15T01:12:02.208Z,1010.17
2018-01-15T01:13:02.222Z,1010.15
2018-01-15T01:14:02.238Z,1010.11
2018-01-15T01:15:02.244Z,1010.12
2018-01-15T01:16:02.263Z,1010.06
2018-01-15T01:17:02.283Z,1010.07
2018-01-15T01:18:02.293Z,1010.09
2018-01-15T01:19:02.304Z,1010.08
2018-01-15T01:20:02.322Z,1010.09
2018-01-15T01:21:02.331Z,1010.11
2018-01-15T01:22:02.345Z,1010.13
2018-01-15T01:23:02.357Z,1010.12
2018-01-15T01:24:02.374Z,1010.12
2018-01-15T01:25:02.390Z,1010.09
2018-01-15T01:26:02.401Z,1010.15
2018-01-15T01:27:02.432Z,1010.10
2018-01-15T01:28:02.438Z,1010.12
2018-01-15T01:29:02.451Z,1010.15
2018-01-15T01:30:02.457Z,1010.13
2018-01-15T01:31:02.472Z,1010.13
2018-01-15T01:32:02.485Z,1010.12
2018-01-15T01:33:02.495Z,1010.15
2018-01-15T01:34:02.516Z,1010.15
2018-01-15T01:35:02.527Z,1010.12
2018-01-15T01:36:02.543Z,1010.10
2018-01-15T01:37:02.560Z,1010.16
2018-01-15T01:38:02.572Z,1010.16
2018-01-15T01:39:02.590Z,1010.15
2018-01-15T01:40:02.600Z,1010.15
2018-01-15T01:41:02.613Z,1010.18
2018-01-15T01:42:02.629Z,1010.19
2018-01-15T01:43:02.648Z,1010.18
2018-01-15T01:44:02.661Z,1010.18
2018-01-15T01:45:02.676Z,1010.15
2018-01-15T01:46:02.687Z,1010.11
2018-01-15T01:47:02.697Z,1010.03
2018-01-15T01:48:02.713Z,1010.06
2018-01-15T01:49:02.729Z,1009.97
2018-01-15T01:50:02.740Z,1009.96
2018-01-15T01:51:02.757Z,1009.93
2018-01-15T01:52:02.767Z,1009.97
2018-01-15T01:53:02.785Z,1009.94
2018-01-15T01:54:02.799Z,1009.91
2018-01-15T01:55:02.810Z,1009.88
2018-01-15T01:56:02.832Z,1009.91
2018-01-15T01:57:02.846Z,1009.93
2018-01-15T01:58:02.860Z,1009.94
2018-01-15T01:59:02.871Z,1009.97
2018-01-15T02:00:02.885Z,1009.92
2018-01-15T02:01:02.902Z,1009.93
2018-01-15T02:02:02.914Z,1009.87
2018-01-15T02:03:02.929Z,1009.85
2018-01-15T02:04:02.944Z,1009.83
2018-01-15T02:05:02.965Z,1009.69
2018-01-15T02:06:02.973Z,1009.76
2018-01-15T02:07:02.984Z,1009.72
2018-01-15T02:08:03.003Z,1009.71
2018-01-15T02:09:03.013Z,1009.73
2018-01-15T02:10:03.030Z,1009.73
2018-01-15T02:11:03.042Z,1009.72
2018-01-15T02:12:03.059Z,1009.70
2018-01-15T02:13:03.076Z,1009.67
2018-01-15T02:14:03.088Z,1009.64
2018-01-15T02:15:03.105Z,1009.64
2018-01-15T02:16:03.112Z,1009.63
2018-01-15T02:17:03.131Z,1009.65
2018-01-15T02:18:03.151Z,1009.66
2018-01-15T02:19:03.157Z,1009.63
2018-01-15T02:20:03.171Z,1009.66
2018-01-15T02:21:03.196Z,1009.65
2018-01-15T02:22:03.205Z,1009.68
2018-01-15T02:23:03.217Z,1009.66
2018-01-15T02:24:03.231Z,1009.67
2018-01-15T02:25:03.249Z,1009.61
2018-01-15T02:26:03.260Z,1009.61
2018-01-15T02:27:03.274Z,1009.60
2018-01-15T02:28:03.289Z,1009.56
2018-01-15T02:29:03.304Z,1009.56
2018-01-15T02:30:03.322Z,1009.56
2018-01-15T02:31:03.334Z,1009.52
2018-01-15T02:32:03.353Z,1009.53
2018-01-15T02:33:03.361Z,1009.50
2018-01-15T02:34:03.382Z,1009.46
2018-01-15T02:35:03.394Z,1009.44
2018-01-15T02:36:03.406Z,1009.41
2018-01-15T02:37:03.418Z,1009.35
2018-01-15T02:38:03.435Z,1009.31
2018-01-15T02:39:03.448Z,1009.29
2018-01-15T02:40:03.464Z,1009.21
2018-01-15T02:41:03.481Z,1009.24
2018-01-15T02:42:03.494Z,1009.18
2018-01-15T02:43:03.505Z,1009.13
2018-01-15T02:44:03.522Z,1009.16
2018-01-15T02:45:03.533Z,1009.17
2018-01-15T02:46:03.554Z,1009.19
2018-01-15T02:47:03.570Z,1009.19
2018-01-15T02:48:03.590Z,1009.16
2018-01-15T02:49:03.597Z,1009.20
2018-01-15T02:50:03.617Z,1009.16
2018-01-15T02:51:03.627Z,1009.11
2018-01-15T02:52:03.640Z,1009.12
2018-01-15T02:53:03.655Z,1009.09
2018-01-15T02:54:03.670Z,1009.09
2018-01-15T02:55:03.685Z,1009.09
2018-01-15T02:56:03.701Z,1009.05
2018-01-15T02:57:03.718Z,1009.10
2018-01-15T02:58:03.730Z,1009.05
2018-01-15T02:59:03.745Z,1009.02
2018-01-15T03:00:03.757Z,1009.00
2018-01-15T03:01:03.774Z,1008.98
2018-01-15T03:02:03.784Z,1009.00
2018-01-15T03:03:03.807Z,1008.95
2018-01-15T03:04:03.819Z,1008.98
2018-01-15T03:05:03.826Z,1008.97
2018-01-15T03:06:03.847Z,1009.00
2018-01-15T03:07:03.861Z,1009.02
2018-01-15T03:08:03.873Z,1008.96
2018-01-15T03:09:03.900Z,1008.98
2018-01-15T03:10:03.908Z,1008.95
2018-01-15T03:11:03.917Z,1008.89
2018-01-15T03:12:03.935Z,1008.94
2018-01-15T03:13:03.955Z,1008.90
2018-01-15T03:14:03.966Z,1008.90
2018-01-15T03:15:03.980Z,1008.87
2018-01-15T03:16:03.995Z,1008.85
2018-01-15T03:17:04.008Z,1008.84
2018-01-15T03:18:04.023Z,1008.81
2018-01-15T03:19:04.038Z,1008.78
2018-01-15T03:20:04.053Z,1008.73
2018-01-15T03:21:04.067Z,1008.70
2018-01-15T03:22:04.082Z,1008.66
2018-01-15T03:23:04.098Z,1008.64
2018-01-15T03:24:04.110Z,1008.62
2018-01-15T03:25:04.130Z,1008.62
2018-01-15T03:26:04.142Z,1008.54
2018-01-15T03:27:04.157Z,1008.57
2018-01-15T03:28:04.174Z,1008.59
2018-01-15T03:29:04.187Z,1008.56
2018-01-15T03:30:04.202Z,1008.58
2018-01-15T03:31:04.218Z,1008.54
2018-01-15T03:32:04.230Z,1008.53
2018-01-15T03:33:04.244Z,1008.50
2018-01-15T03:34:04.266Z,1008.52
2018-01-15T03:35:04.275Z,1008.53
2018-01-15T03:36:04.296Z,1008.48
2018-01-15T03:37:04.310Z,1008.52
2018-01-15T03:38:04.324Z,1008.47
2018-01-15T03:39:04.334Z,1008.42
2018-01-15T03:40:04.354Z,1008.49
2018-01-15T03:41:04.366Z,1008.46
2018-01-15T03:42:04.378Z,1008.43
2018-01-15T03:43:04.394Z,1008.41
2018-01-15T03:44:04.417Z,1008.41
2018-01-15T03:45:04.430Z,1008.42
2018-01-15T03:46:04.441Z,1008.41
2018-01-15T03:47:04.455Z,1008.35
2018-01-15T03:48:04.478Z,1008.39
2018-01-15T03:49:04.484Z,1008.36
2018-01-15T03:50:04.506Z,1008.37
2018-01-15T03:51:04.514Z,1008.36
2018-01-15T03:52:04.533Z,1008.32
2018-01-15T03:53:04.548Z,1008.31
2018-01-15T03:54:04.563Z,1008.25
2018-01-15T03:55:04.576Z,1008.23
2018-01-15T03:56:04.590Z,1008.23
2018-01-15T03:57:04.604Z,1008.19
2018-01-15T03:58:04.620Z,1008.19
2018-01-15T03:59:04.641Z,1008.16
2018-01-15T04:00:04.654Z,1008.19
2018-01-15T04:01:04.665Z,1008.17
2018-01-15T04:02:04.719Z,1008.17
2018-01-15T04:03:04.696Z,1008.13
2018-01-15T04:04:04.715Z,1008.09
2018-01-15T04:05:04.730Z,1008.06
2018-01-15T04:06:04.740Z,1008.09
2018-01-15T04:07:04.757Z,1008.05
2018-01-15T04:08:04.769Z,1008.02
2018-01-15T04:09:04.787Z,1008.04
2018-01-15T04:10:04.801Z,1007.97
2018-01-15T04:11:04.820Z,1007.99
2018-01-15T04:12:04.829Z,1007.99
2018-01-15T04:13:04.847Z,1007.98
2018-01-15T04:14:04.881Z,1007.96
2018-01-15T04:15:04.881Z,1007.98
2018-01-15T04:16:04.892Z,1007.98
2018-01-15T04:17:04.912Z,1007.95
2018-01-15T04:18:04.927Z,1007.92
2018-01-15T04:19:04.935Z,1007.88
2018-01-15T04:20:04.954Z,1007.90
2018-01-15T04:21:04.978Z,1007.96
2018-01-15T04:22:04.984Z,1007.93
2018-01-15T04:23:05.001Z,1007.88
2018-01-15T04:24:05.018Z,1007.89
2018-01-15T04:25:05.031Z,1007.86
2018-01-15T04:26:05.055Z,1007.85
2018-01-15T04:27:05.064Z,1007.87
2018-01-15T04:28:05.089Z,1007.84
2018-01-15T04:29:05.094Z,1007.82
2018-01-15T04:30:05.114Z,1007.78
2018-01-15T04:31:05.124Z,1007.77
2018-01-15T04:32:05.138Z,1007.81
2018-01-15T04:33:05.157Z,1007.76
2018-01-15T04:34:05.170Z,1007.71
2018-01-15T04:35:05.188Z,1007.73
2018-01-15T04:36:05.202Z,1007.71
2018-01-15T04:37:05.220Z,1007.71
2018-01-15T04:38:05.234Z,1007.70
2018-01-15T04:39:05.250Z,1007.75
2018-01-15T04:40:05.270Z,1007.71
2018-01-15T04:41:05.279Z,1007.70
2018-01-15T04:42:05.296Z,1007.68
2018-01-15T04:43:05.306Z,1007.66
2018-01-15T04:44:05.326Z,1007.65
2018-01-15T04:45:05.344Z,1007.61
2018-01-15T04:46:05.354Z,1007.56
2018-01-15T04:47:05.369Z,1007.56
2018-01-15T04:48:05.390Z,1007.53
2018-01-15T04:49:05.405Z,1007.46
2018-01-15T04:50:05.420Z,1007.49
2018-01-15T04:51:05.469Z,1007.47
2018-01-15T04:52:05.454Z,1007.44
2018-01-15T04:53:05.463Z,1007.41
2018-01-15T04:54:05.478Z,1007.44
2018-01-15T04:55:05.496Z,1007.44
2018-01-15T04:56:05.509Z,1007.52
2018-01-15T04:57:05.524Z,1007.47
2018-01-15T04:58:05.545Z,1007.47
2018-01-15T04:59:05.557Z,1007.38
2018-01-15T05:00:05.580Z,1007.39
2018-01-15T05:01:05.587Z,1007.35
2018-01-15T05:02:05.602Z,1007.34
2018-01-15T05:03:05.629Z,1007.36
2018-01-15T05:04:05.634Z,1007.31
2018-01-15T05:05:05.651Z,1007.33
2018-01-15T05:06:05.674Z,1007.27
2018-01-15T05:07:05.687Z,1007.28
2018-01-15T05:08:05.700Z,1007.26
2018-01-15T05:09:05.721Z,1007.20
2018-01-15T05:10:05.729Z,1007.24
2018-01-15T05:11:05.745Z,1007.20
2018-01-15T05:12:05.759Z,1007.22
2018-01-15T05:13:05.789Z,1007.26
2018-01-15T05:14:05.811Z,1007.24
2018-01-15T05:15:05.814Z,1007.23
2018-01-15T05:16:05.832Z,1007.15
2018-01-15T05:17:05.848Z,1007.19
2018-01-15T05:18:05.857Z,1007.12
2018-01-15T05:19:05.871Z,1007.14
2018-01-15T05:20:05.885Z,1007.12
2018-01-15T05:21:05.901Z,1007.04
2018-01-15T05:22:05.920Z,1007.05
2018-01-15T05:23:05.937Z,1007.07
2018-01-15T05:24:05.954Z,1007.04
2018-01-15T05:25:05.971Z,1006.99
2018-01-15T05:26:05.984Z,1006.95
2018-01-15T05:27:05.998Z,1006.96
2018-01-15T05:28:06.018Z,1006.96
2018-01-15T05:29:06.039Z,1006.98
2018-01-15T05:30:06.045Z,1006.96
2018-01-15T05:31:06.059Z,1006.95
2018-01-15T05:32:06.084Z,1006.91
2018-01-15T05:33:06.090Z,1006.87
2018-01-15T05:34:06.113Z,1006.85
2018-01-15T05:35:06.133Z,1006.90
2018-01-15T05:36:06.141Z,1006.89
2018-01-15T05:37:06.210Z,1006.85
2018-01-15T05:38:06.179Z,1006.81
2018-01-15T05:39:06.183Z,1006.76
2018-01-15T05:40:06.215Z,1006.76
2018-01-15T05:41:06.217Z,1006.72
2018-01-15T05:42:06.234Z,1006.71
2018-01-15T05:43:06.263Z,1006.67
2018-01-15T05:44:06.267Z,1006.67
2018-01-15T05:45:06.282Z,1006.66
2018-01-15T05:46:06.301Z,1006.65
2018-01-15T05:47:06.319Z,1006.65
2018-01-15T05:48:06.326Z,1006.67
2018-01-15T05:49:06.346Z,1006.67
2018-01-15T05:50:06.358Z,1006.61
2018-01-15T05:51:06.373Z,1006.57
2018-01-15T05:52:06.389Z,1006.56
2018-01-15T05:53:06.408Z,1006.53
2018-01-15T05:54:06.430Z,1006.50
2018-01-15T05:55:06.436Z,1006.50
2018-01-15T05:56:06.457Z,1006.42
2018-01-15T05:57:06.467Z,1006.41
2018-01-15T05:58:06.486Z,1006.41
2018-01-15T05:59:06.502Z,1006.36
2018-01-15T06:00:06.524Z,1006.34
2018-01-15T06:01:06.536Z,1006.29
2018-01-15T06:02:06.548Z,1006.30
2018-01-15T06:03:06.562Z,1006.35
2018-01-15T06:04:06.579Z,1006.40
2018-01-15T06:05:06.597Z,1006.35
2018-01-15T06:06:06.618Z,1006.35
2018-01-15T06:07:06.625Z,1006.36
2018-01-15T06:08:06.645Z,1006.33
2018-01-15T06:09:06.664Z,1006.35
2018-01-15T06:10:06.676Z,1006.30
2018-01-15T06:11:06.686Z,1006.25
2018-01-15T06:12:06.705Z,1006.27
2018-01-15T06:13:06.720Z,1006.23
2018-01-15T06:14:06.736Z,1006.20
2018-01-15T06:15:06.750Z,1006.17
2018-01-15T06:16:06.767Z,1006.13
2018-01-15T06:17:06.784Z,1006.09
2018-01-15T06:18:06.801Z,1006.10
2018-01-15T06:19:06.813Z,1006.08
2018-01-15T06:20:06.833Z,1006.07
2018-01-15T06:21:06.843Z,1006.04
2018-01-15T06:22:06.861Z,1006.09
2018-01-15T06:23:06.879Z,1006.00
2018-01-15T06:24:06.889Z,1006.03
2018-01-15T06:25:06.906Z,1005.98
2018-01-15T06:26:06.921Z,1005.98
2018-01-15T06:27:06.943Z,1005.99
2018-01-15T06:28:06.953Z,1006.00
2018-01-15T06:29:06.974Z,1005.99
2018-01-15T06:30:06.991Z,1005.94
2018-01-15T06:31:07.010Z,1005.99
2018-01-15T06:32:07.018Z,1005.97
2018-01-15T06:33:07.035Z,1005.91
2018-01-15T06:34:07.050Z,1005.91
2018-01-15T06:35:07.066Z,1005.88
2018-01-15T06:36:07.088Z,1005.89
2018-01-15T06:37:07.093Z,1005.89
2018-01-15T06:38:07.108Z,1005.85
2018-01-15T06:39:07.132Z,1005.80
2018-01-15T06:40:07.145Z,1005.89
2018-01-15T06:41:07.160Z,1005.84
2018-01-15T06:42:07.176Z,1005.89
2018-01-15T06:43:07.189Z,1005.86
2018-01-15T06:44:07.209Z,1005.87
2018-01-15T06:45:07.218Z,1005.88
2018-01-15T06:46:07.242Z,1005.84
2018-01-15T06:47:07.252Z,1005.76
2018-01-15T06:48:07.270Z,1005.78
2018-01-15T06:49:07.282Z,1005.77
2018-01-15T06:50:07.299Z,1005.77
2018-01-15T06:51:07.312Z,1005.69
2018-01-15T06:52:07.323Z,1005.71
2018-01-15T06:53:07.351Z,1005.74
2018-01-15T06:54:07.372Z,1005.75
2018-01-15T06:55:07.368Z,1005.70
2018-01-15T06:56:07.388Z,1005.73
2018-01-15T06:57:07.402Z,1005.73
2018-01-15T06:58:07.420Z,1005.75
2018-01-15T06:59:07.440Z,1005.73
2018-01-15T07:00:07.451Z,1005.82
2018-01-15T07:01:07.469Z,1005.75
2018-01-15T07:02:07.478Z,1005.75
2018-01-15T07:03:07.497Z,1005.77
2018-01-15T07:04:07.514Z,1005.73
2018-01-15T07:05:07.526Z,1005.72
2018-01-15T07:06:07.543Z,1005.73
2018-01-15T07:07:07.562Z,1005.73
2018-01-15T07:08:07.586Z,1005.73
2018-01-15T07:09:07.593Z,1005.67
2018-01-15T07:10:07.607Z,1005.66
2018-01-15T07:11:07.614Z,1005.63
2018-01-15T07:12:07.625Z,1005.59
2018-01-15T07:13:07.644Z,1005.55
2018-01-15T07:14:07.658Z,1005.53
2018-01-15T07:15:07.674Z,1005.56
2018-01-15T07:16:07.700Z,1005.58
2018-01-15T07:17:07.720Z,1005.56
2018-01-15T07:18:07.726Z,1005.58
2018-01-15T07:19:07.760Z,1005.53
2018-01-15T07:20:07.751Z,1005.55
2018-01-15T07:21:07.764Z,1005.55
2018-01-15T07:22:07.788Z,1005.58
2018-01-15T07:23:07.800Z,1005.59
2018-01-15T07:24:07.829Z,1005.61
2018-01-15T07:25:07.831Z,1005.60
2018-01-15T07:26:07.842Z,1005.65
2018-01-15T07:27:07.856Z,1005.65
2018-01-15T07:28:07.886Z,1005.66
2018-01-15T07:29:07.924Z,1005.67
2018-01-15T07:30:07.908Z,1005.68
2018-01-15T07:31:07.926Z,1005.67
2018-01-15T07:32:07.935Z,1005.63
2018-01-15T07:33:07.963Z,1005.65
2018-01-15T07:34:07.970Z,1005.64
2018-01-15T07:35:07.994Z,1005.60
2018-01-15T07:36:07.997Z,1005.54
2018-01-15T07:37:08.015Z,1005.53
2018-01-15T07:38:08.032Z,1005.50
2018-01-15T07:39:08.047Z,1005.49
2018-01-15T07:40:08.056Z,1005.52
2018-01-15T07:41:08.075Z,1005.47
2018-01-15T07:42:08.097Z,1005.50
2018-01-15T07:43:08.104Z,1005.47
2018-01-15T07:44:08.124Z,1005.45
2018-01-15T07:45:08.144Z,1005.45
2018-01-15T07:46:08.189Z,1005.42
2018-01-15T07:47:08.172Z,1005.40
2018-01-15T07:48:08.189Z,1005.40
2018-01-15T07:49:08.203Z,1005.41
2018-01-15T07:50:08.213Z,1005.34
2018-01-15T07:51:08.225Z,1005.29
2018-01-15T07:52:08.246Z,1005.33
2018-01-15T07:53:08.265Z,1005.31
2018-01-15T07:54:08.277Z,1005.21
2018-01-15T07:55:08.296Z,1005.18
2018-01-15T07:56:08.310Z,1005.19
2018-01-15T07:57:08.325Z,1005.17
2018-01-15T07:58:08.335Z,1005.17
2018-01-15T07:59:08.352Z,1005.12
2018-01-15T08:00:08.370Z,1005.15
2018-01-15T08:01:08.386Z,1005.17
2018-01-15T08:02:08.396Z,1005.15
2018-01-15T08:03:08.428Z,1005.14
2018-01-15T08:04:08.440Z,1005.18
2018-01-15T08:05:08.457Z,1005.22
2018-01-15T08:06:08.466Z,1005.26
2018-01-15T08:07:08.480Z,1005.23
2018-01-15T08:08:08.503Z,1005.24
2018-01-15T08:09:08.514Z,1005.19
2018-01-15T08:10:08.526Z,1005.15
2018-01-15T08:11:08.546Z,1005.16
2018-01-15T08:12:08.550Z,1005.10
2018-01-15T08:13:08.566Z,1005.09
2018-01-15T08:14:08.588Z,1005.01
2018-01-15T08:15:08.616Z,1004.99
2018-01-15T08:16:08.641Z,1005.02
2018-01-15T08:17:08.646Z,1004.95
2018-01-15T08:18:08.644Z,1004.94
2018-01-15T08:19:08.678Z,1004.89
2018-01-15T08:20:08.694Z,1004.91
2018-01-15T08:21:08.709Z,1004.94
2018-01-15T08:22:08.706Z,1004.84
2018-01-15T08:23:08.719Z,1004.79
2018-01-15T08:24:08.748Z,1004.78
2018-01-15T08:25:08.759Z,1004.78
2018-01-15T08:26:08.767Z,1004.78
2018-01-15T08:27:08.782Z,1004.79
2018-01-15T08:28:08.814Z,1004.75
2018-01-15T08:29:08.816Z,1004.77
2018-01-15T08:30:08.833Z,1004.71
2018-01-15T08:31:08.846Z,1004.69
2018-01-15T08:32:08.876Z,1004.69
2018-01-15T08:33:08.874Z,1004.71
2018-01-15T08:34:08.922Z,1004.67
2018-01-15T08:35:08.917Z,1004.65
2018-01-15T08:36:08.928Z,1004.70
2018-01-15T08:37:08.957Z,1004.63
2018-01-15T08:38:09.012Z,1004.70
2018-01-15T08:39:08.970Z,1004.71
2018-01-15T08:40:08.997Z,1004.69
2018-01-15T08:41:09.000Z,1004.63
2018-01-15T08:42:09.046Z,1004.59
2018-01-15T08:43:09.037Z,1004.56
2018-01-15T08:44:09.060Z,1004.54
2018-01-15T08:45:09.066Z,1004.52
2018-01-15T08:46:09.086Z,1004.54
2018-01-15T08:47:09.094Z,1004.48
2018-01-15T08:48:09.123Z,1004.45
2018-01-15T08:49:09.134Z,1004.37
2018-01-15T08:50:09.164Z,1004.36
2018-01-15T08:51:09.165Z,1004.38
2018-01-15T08:52:09.185Z,1004.27
2018-01-15T08:53:09.188Z,1004.29
2018-01-15T08:54:09.203Z,1004.29
2018-01-15T08:55:09.218Z,1004.30
2018-01-15T08:56:09.230Z,1004.34
2018-01-15T08:57:09.245Z,1004.31
2018-01-15T08:58:09.272Z,1004.29
2018-01-15T08:59:09.314Z,1004.29
2018-01-15T09:00:09.293Z,1004.26
2018-01-15T09:01:09.334Z,1004.20
2018-01-15T09:02:09.340Z,1004.21
2018-01-15T09:03:09.358Z,1004.20
2018-01-15T09:04:09.372Z,1004.20
2018-01-15T09:05:09.380Z,1004.22
2018-01-15T09:06:09.396Z,1004.09
2018-01-15T09:07:09.431Z,1004.12
2018-01-15T09:08:09.431Z,1004.07
2018-01-15T09:09:09.451Z,1004.04
2018-01-15T09:10:09.465Z,1004.08
2018-01-15T09:11:09.478Z,1004.06
2018-01-15T09:12:09.502Z,1004.00
2018-01-15T09:13:09.510Z,1004.00
2018-01-15T09:14:09.518Z,1004.07
2018-01-15T09:15:09.542Z,1004.04
2018-01-15T09:16:09.557Z,1003.98
2018-01-15T09:17:09.573Z,1003.97
2018-01-15T09:18:09.591Z,1003.93
2018-01-15T09:19:09.598Z,1003.92
2018-01-15T09:20:09.610Z,1003.89
2018-01-15T09:21:09.674Z,1003.84
2018-01-15T09:22:09.664Z,1003.88
2018-01-15T09:23:09.675Z,1003.78
2018-01-15T09:24:09.694Z,1003.82
2018-01-15T09:25:09.701Z,1003.80
2018-01-15T09:26:09.709Z,1003.79
2018-01-15T09:27:09.734Z,1003.75
2018-01-15T09:28:09.762Z,1003.76
2018-01-15T09:29:09.786Z,1003.70
2018-01-15T09:30:09.809Z,1003.71
2018-01-15T09:31:09.802Z,1003.72
2018-01-15T09:32:09.840Z,1003.65
2018-01-15T09:33:09.833Z,1003.67
2018-01-15T09:34:09.858Z,1003.61
2018-01-15T09:35:09.865Z,1003.61
2018-01-15T09:36:10.532Z,1003.60
2018-01-15T09:37:09.889Z,1003.58
2018-01-15T09:38:09.909Z,1003.61
2018-01-15T09:39:09.948Z,1003.61
2018-01-15T09:40:09.951Z,1003.59
2018-01-15T09:41:09.975Z,1003.57
2018-01-15T09:42:09.977Z,1003.54
2018-01-15T09:43:09.986Z,1003.52
2018-01-15T09:44:10.016Z,1003.55
2018-01-15T09:45:10.027Z,1003.54
2018-01-15T09:46:10.050Z,1003.50
2018-01-15T09:47:10.064Z,1003.46
2018-01-15T09:48:10.077Z,1003.45
2018-01-15T09:49:10.100Z,1003.41
2018-01-15T09:50:10.113Z,1003.38
2018-01-15T09:51:10.149Z,1003.37
2018-01-15T09:52:10.153Z,1003.32
2018-01-15T09:53:10.163Z,1003.31
2018-01-15T09:54:10.179Z,1003.30
2018-01-15T09:55:10.190Z,1003.22
2018-01-15T09:56:10.205Z,1003.25
2018-01-15T09:57:10.225Z,1003.23
2018-01-15T09:58:10.251Z,1003.17
2018-01-15T09:59:10.258Z,1003.13
2018-01-15T10:00:10.321Z,1003.08
2018-01-15T10:01:10.298Z,1003.09
2018-01-15T10:02:10.306Z,1003.09
2018-01-15T10:03:10.326Z,1003.11
2018-01-15T10:04:10.338Z,1003.13
2018-01-15T10:05:10.371Z,1003.07
2018-01-15T10:06:10.396Z,1003.07
2018-01-15T10:07:10.389Z,1003.01
2018-01-15T10:08:10.407Z,1003.06
2018-01-15T10:09:10.433Z,1003.06
2018-01-15T10:10:10.439Z,1003.04
2018-01-15T10:11:10.461Z,1003.00
2018-01-15T10:12:10.616Z,1002.97
2018-01-15T10:13:10.505Z,1002.98
2018-01-15T10:14:10.513Z,1003.01
2018-01-15T10:15:10.533Z,1002.94
2018-01-15T10:16:10.552Z,1002.81
2018-01-15T10:17:10.565Z,1002.83
2018-01-15T10:18:10.579Z,1002.83
2018-01-15T10:19:10.604Z,1002.84
2018-01-15T10:20:10.617Z,1002.83
2018-01-15T10:21:10.635Z,1002.78
2018-01-15T10:22:10.639Z,1002.67
2018-01-15T10:23:10.661Z,1002.64
2018-01-15T10:24:10.688Z,1002.60
2018-01-15T10:25:10.692Z,1002.54
2018-01-15T10:26:10.721Z,1002.56
2018-01-15T10:27:10.769Z,1002.55
2018-01-15T10:28:10.762Z,1002.54
2018-01-15T10:29:10.757Z,1002.50
2018-01-15T10:30:10.776Z,1002.54
2018-01-15T10:31:10.801Z,1002.47
2018-01-15T10:32:10.808Z,1002.45
2018-01-15T10:33:10.838Z,1002.41
2018-01-15T10:34:10.849Z,1002.37
2018-01-15T10:35:10.867Z,1002.34
2018-01-15T10:36:10.879Z,1002.27
2018-01-15T10:37:10.895Z,1002.25
2018-01-15T10:38:10.917Z,1002.14
2018-01-15T10:39:10.937Z,1002.11
2018-01-15T10:40:10.950Z,1002.08
2018-01-15T10:41:10.973Z,1002.06
2018-01-15T10:42:10.983Z,1002.05
2018-01-15T10:43:11.004Z,1002.08
2018-01-15T10:44:11.023Z,1002.09
2018-01-15T10:45:11.047Z,1002.13
2018-01-15T10:46:11.060Z,1002.11
2018-01-15T10:47:11.067Z,1002.00
2018-01-15T10:48:11.090Z,1002.04
2018-01-15T10:49:11.169Z,1001.99
2018-01-15T10:50:11.174Z,1002.02
2018-01-15T10:51:11.144Z,1001.98
2018-01-15T10:52:11.165Z,1001.92
2018-01-15T10:53:11.171Z,1001.80
2018-01-15T10:54:11.196Z,1001.82
2018-01-15T10:55:11.224Z,1001.83
2018-01-15T10:56:11.225Z,1001.79
2018-01-15T10:57:11.290Z,1001.76
2018-01-15T10:58:11.263Z,1001.72
2018-01-15T10:59:11.287Z,1001.65
2018-01-15T11:00:11.313Z,1001.64
2018-01-15T11:01:11.318Z,1001.56
2018-01-15T11:02:11.381Z,1001.62
2018-01-15T11:03:11.365Z,1001.60
2018-01-15T11:04:11.370Z,1001.57
2018-01-15T11:05:11.392Z,1001.61
2018-01-15T11:06:11.409Z,1001.53
2018-01-15T11:07:11.426Z,1001.43
2018-01-15T11:08:11.441Z,1001.39
2018-01-15T11:09:11.459Z,1001.37
2018-01-15T11:10:11.477Z,1001.35
2018-01-15T11:11:11.493Z,1001.32
2018-01-15T11:12:11.513Z,1001.28
2018-01-15T11:13:11.530Z,1001.25
2018-01-15T11:14:11.550Z,1001.29
2018-01-15T11:15:11.569Z,1001.17
2018-01-15T11:16:11.583Z,1001.18
2018-01-15T11:17:11.604Z,1001.12
2018-01-15T11:18:11.616Z,1001.07
2018-01-15T11:19:11.642Z,1001.07
2018-01-15T11:20:11.654Z,1001.02
2018-01-15T11:21:11.669Z,1000.98
2018-01-15T11:22:11.684Z,1000.99
2018-01-15T11:23:11.719Z,1000.87
2018-01-15T11:24:11.723Z,1000.93
2018-01-15T11:25:11.747Z,1000.82
2018-01-15T11:26:11.768Z,1000.78
2018-01-15T11:27:11.774Z,1000.76
2018-01-15T11:28:11.796Z,1000.77
2018-01-15T11:29:11.815Z,1000.69
2018-01-15T11:30:11.833Z,1000.56
2018-01-15T11:31:11.845Z,1000.68
2018-01-15T11:32:11.869Z,1000.53
2018-01-15T11:33:11.882Z,1000.58
2018-01-15T11:34:11.902Z,1000.51
2018-01-15T11:35:11.974Z,1000.54
2018-01-15T11:36:11.962Z,1000.44
2018-01-15T11:37:11.975Z,1000.35
2018-01-15T11:38:11.972Z,1000.40
2018-01-15T11:39:11.984Z,1000.35
2018-01-15T11:40:12.002Z,1000.33
2018-01-15T11:41:12.082Z,1000.31
2018-01-15T11:42:12.038Z,1000.27
2018-01-15T11:43:12.074Z,1000.23
2018-01-15T11:44:12.101Z,1000.24
2018-01-15T11:45:13.059Z,1000.12
2018-01-15T11:46:12.643Z,1000.10
2018-01-15T11:47:12.130Z,1000.05
2018-01-15T11:48:12.188Z,999.99
2018-01-15T11:49:12.179Z,999.97
2018-01-15T11:50:12.204Z,999.85
2018-01-15T11:51:12.218Z,999.75
2018-01-15T11:52:12.221Z,999.74
2018-01-15T11:53:12.236Z,999.70
2018-01-15T11:54:12.286Z,999.68
2018-01-15T11:55:12.268Z,999.56
2018-01-15T11:56:12.282Z,999.50
2018-01-15T11:57:12.298Z,999.39
2018-01-15T11:58:12.325Z,999.35
2018-01-15T11:59:12.391Z,999.40
2018-01-15T12:00:12.363Z,999.24
2018-01-15T12:01:12.368Z,999.22
2018-01-15T12:02:12.406Z,999.21
2018-01-15T12:03:12.415Z,999.11
2018-01-15T12:04:12.426Z,999.07
2018-01-15T12:05:12.438Z,998.96
2018-01-15T12:06:12.465Z,998.98